Skip Navigation LinksHome page > Weather > Current weather Skip Navigation Links

Current Weather

Kansas City Downtown, Kansas City, Mo.

For information only: do not use for flight planning or navigation.
Latest weather
Observation time Monday, June 21, 2021 6:54 PM CDT
Local time Monday, June 21, 2021 7:48 PM CDT
Flight conditions Visual Meteorological Conditions
Winds
Wind direction North (10°)
Wind speed 15 mph
Wind gusting to 22 mph
Visibility 10 mi.
Sky condition
Ceiling unlimited
Sky clear
Temperature 76°F
Dewpoint 46°F
Altimeter 29.96 in.Hg
Pressure change last 3 hours0.02 in.Hg
Pressure falling more quickly
Derived measurements
Relative humidity 35%
Density altitude 1959 ft.
Sea-level pressure 29.94 in.Hg
Climate data
Temperature minimum, last 6 hours 72°F
Temperature maximum, last 6 hours 77°F
Remarks
Automated weather observing station with precipitation discriminator.
METAR KMKC 212354Z 01013G19KT 10SM CLR 24/08 A2996 RMK AO2 SLP140 T02440078 10250 20222 58006

Settings

Location code

InnerDrive.Weather 4.0.6770.0 Release CLR 4.0.30319.42000
Copyright ©2018 Inner Drive Technology. All rights reserved. Portions Copyright ©1986-2018 David Braverman.

Find weather

Site navigation


Skip Navigation Links

Place info

Page info

PayPal - The safer, easier way to pay online!

Return home.

Copyright ©2021 Inner Drive Technology. Purveyors of fine, hand-crafted computer software. Page printed 2021-06-22T00:48:10 UTC.